sensor_id;sensor_type;location;lat;lon;timestamp;temperature;humidity
54168;DHT22;40072;50.958;3.592;2023-02-21T00:00:53;7.80;99.90
54168;DHT22;40072;50.958;3.592;2023-02-21T00:03:36;7.90;99.90
54168;DHT22;40072;50.958;3.592;2023-02-21T00:06:21;7.90;99.90
54168;DHT22;40072;50.958;3.592;2023-02-21T00:09:05;7.90;99.90
54168;DHT22;40072;50.958;3.592;2023-02-21T00:11:49;7.90;99.90
54168;DHT22;40072;50.958;3.592;2023-02-21T00:14:35;7.90;99.90
54168;DHT22;40072;50.958;3.592;2023-02-21T00:17:19;7.80;99.90
54168;DHT22;40072;50.958;3.592;2023-02-21T00:20:04;7.80;99.90
54168;DHT22;40072;50.958;3.592;2023-02-21T00:22:48;7.70;99.90
54168;DHT22;40072;50.958;3.592;2023-02-21T00:25:33;7.60;99.90
54168;DHT22;40072;50.958;3.592;2023-02-21T00:28:17;7.80;99.90
54168;DHT22;40072;50.958;3.592;2023-02-21T00:31:01;7.80;99.90
54168;DHT22;40072;50.958;3.592;2023-02-21T00:33:45;7.90;99.90
54168;DHT22;40072;50.958;3.592;2023-02-21T00:36:29;7.90;99.90
54168;DHT22;40072;50.958;3.592;2023-02-21T00:39:13;8.00;99.90
54168;DHT22;40072;50.958;3.592;2023-02-21T00:41:57;8.10;99.90
54168;DHT22;40072;50.958;3.592;2023-02-21T00:44:41;8.10;99.90
54168;DHT22;40072;50.958;3.592;2023-02-21T00:47:25;8.00;99.90
54168;DHT22;40072;50.958;3.592;2023-02-21T00:50:09;8.00;99.90
54168;DHT22;40072;50.958;3.592;2023-02-21T00:52:53;8.10;99.90
54168;DHT22;40072;50.958;3.592;2023-02-21T00:55:37;8.10;99.90
54168;DHT22;40072;50.958;3.592;2023-02-21T00:58:22;7.90;99.90
54168;DHT22;40072;50.958;3.592;2023-02-21T01:01:06;8.10;99.90
54168;DHT22;40072;50.958;3.592;2023-02-21T01:03:50;8.00;99.90
54168;DHT22;40072;50.958;3.592;2023-02-21T01:06:34;8.00;99.90
54168;DHT22;40072;50.958;3.592;2023-02-21T01:09:18;8.00;99.90
54168;DHT22;40072;50.958;3.592;2023-02-21T01:12:03;8.00;99.90
54168;DHT22;40072;50.958;3.592;2023-02-21T01:14:47;7.90;99.90
54168;DHT22;40072;50.958;3.592;2023-02-21T01:17:31;7.90;99.90
54168;DHT22;40072;50.958;3.592;2023-02-21T01:20:15;7.80;99.90
54168;DHT22;40072;50.958;3.592;2023-02-21T01:22:59;7.90;99.90
54168;DHT22;40072;50.958;3.592;2023-02-21T01:25:43;7.90;99.90
54168;DHT22;40072;50.958;3.592;2023-02-21T01:28:27;7.70;99.90
54168;DHT22;40072;50.958;3.592;2023-02-21T01:31:19;7.70;99.90
54168;DHT22;40072;50.958;3.592;2023-02-21T01:34:03;7.80;99.90
54168;DHT22;40072;50.958;3.592;2023-02-21T01:36:48;7.80;99.90
54168;DHT22;40072;50.958;3.592;2023-02-21T01:39:32;7.80;99.90
54168;DHT22;40072;50.958;3.592;2023-02-21T01:42:16;7.70;99.90
54168;DHT22;40072;50.958;3.592;2023-02-21T01:48:16;7.70;99.90
54168;DHT22;40072;50.958;3.592;2023-02-21T01:51:03;7.80;99.90
54168;DHT22;40072;50.958;3.592;2023-02-21T01:53:48;7.80;99.90
54168;DHT22;40072;50.958;3.592;2023-02-21T01:56:33;7.80;99.90
54168;DHT22;40072;50.958;3.592;2023-02-21T01:59:19;7.80;99.90
54168;DHT22;40072;50.958;3.592;2023-02-21T02:02:23;7.80;99.90
54168;DHT22;40072;50.958;3.592;2023-02-21T02:05:11;7.80;99.90
54168;DHT22;40072;50.958;3.592;2023-02-21T02:07:55;7.70;99.90
54168;DHT22;40072;50.958;3.592;2023-02-21T02:10:40;7.70;99.90
54168;DHT22;40072;50.958;3.592;2023-02-21T02:13:48;7.80;99.90
54168;DHT22;40072;50.958;3.592;2023-02-21T02:22:18;7.90;99.90
54168;DHT22;40072;50.958;3.592;2023-02-21T02:31:20;7.90;99.90
54168;DHT22;40072;50.958;3.592;2023-02-21T02:40:10;7.80;99.90
54168;DHT22;40072;50.958;3.592;2023-02-21T02:43:07;7.80;99.90
54168;DHT22;40072;50.958;3.592;2023-02-21T02:45:50;7.90;99.90
54168;DHT22;40072;50.958;3.592;2023-02-21T02:50:57;8.00;99.90
54168;DHT22;40072;50.958;3.592;2023-02-21T02:53:27;7.90;99.90
54168;DHT22;40072;50.958;3.592;2023-02-21T02:55:55;7.90;99.90
54168;DHT22;40072;50.958;3.592;2023-02-21T02:58:24;7.90;99.90
54168;DHT22;40072;50.958;3.592;2023-02-21T03:01:19;7.80;99.90
54168;DHT22;40072;50.958;3.592;2023-02-21T03:04:15;7.80;99.90
54168;DHT22;40072;50.958;3.592;2023-02-21T03:07:01;7.70;99.90
54168;DHT22;40072;50.958;3.592;2023-02-21T03:10:11;7.60;99.90
54168;DHT22;40072;50.958;3.592;2023-02-21T03:18:02;7.60;99.90
54168;DHT22;40072;50.958;3.592;2023-02-21T03:20:31;7.70;99.90
54168;DHT22;40072;50.958;3.592;2023-02-21T03:22:57;7.60;99.90
54168;DHT22;40072;50.958;3.592;2023-02-21T03:25:26;7.60;99.90
54168;DHT22;40072;50.958;3.592;2023-02-21T03:27:54;7.80;99.90
54168;DHT22;40072;50.958;3.592;2023-02-21T03:30:20;7.70;99.90
54168;DHT22;40072;50.958;3.592;2023-02-21T03:32:49;7.90;99.90
54168;DHT22;40072;50.958;3.592;2023-02-21T03:35:17;7.90;99.90
54168;DHT22;40072;50.958;3.592;2023-02-21T03:37:46;7.60;99.90
54168;DHT22;40072;50.958;3.592;2023-02-21T03:40:22;7.50;99.90
54168;DHT22;40072;50.958;3.592;2023-02-21T03:42:49;7.40;99.90
54168;DHT22;40072;50.958;3.592;2023-02-21T03:45:15;7.40;99.90
54168;DHT22;40072;50.958;3.592;2023-02-21T03:47:41;7.50;99.90
54168;DHT22;40072;50.958;3.592;2023-02-21T03:50:07;7.40;99.90
54168;DHT22;40072;50.958;3.592;2023-02-21T03:52:33;7.50;99.90
54168;DHT22;40072;50.958;3.592;2023-02-21T03:54:59;7.40;99.90
54168;DHT22;40072;50.958;3.592;2023-02-21T03:57:25;7.60;99.90
54168;DHT22;40072;50.958;3.592;2023-02-21T03:59:50;7.60;99.90
54168;DHT22;40072;50.958;3.592;2023-02-21T04:02:16;7.70;99.90
54168;DHT22;40072;50.958;3.592;2023-02-21T04:04:43;7.80;99.90
54168;DHT22;40072;50.958;3.592;2023-02-21T04:07:10;7.80;99.90
54168;DHT22;40072;50.958;3.592;2023-02-21T04:09:36;7.50;99.90
54168;DHT22;40072;50.958;3.592;2023-02-21T04:12:03;7.40;99.90
54168;DHT22;40072;50.958;3.592;2023-02-21T04:14:29;7.40;99.90
54168;DHT22;40072;50.958;3.592;2023-02-21T04:16:55;7.30;99.90
54168;DHT22;40072;50.958;3.592;2023-02-21T04:19:20;7.30;99.90
54168;DHT22;40072;50.958;3.592;2023-02-21T04:21:46;7.40;99.90
54168;DHT22;40072;50.958;3.592;2023-02-21T04:24:12;7.50;99.90
54168;DHT22;40072;50.958;3.592;2023-02-21T04:26:38;7.50;99.90
54168;DHT22;40072;50.958;3.592;2023-02-21T04:29:04;7.50;99.90
54168;DHT22;40072;50.958;3.592;2023-02-21T04:31:31;7.40;99.90
54168;DHT22;40072;50.958;3.592;2023-02-21T04:34:00;7.30;99.90
54168;DHT22;40072;50.958;3.592;2023-02-21T04:36:26;7.30;99.90
54168;DHT22;40072;50.958;3.592;2023-02-21T04:38:52;7.20;99.90
54168;DHT22;40072;50.958;3.592;2023-02-21T04:41:18;7.20;99.90
54168;DHT22;40072;50.958;3.592;2023-02-21T04:43:45;7.20;99.90
54168;DHT22;40072;50.958;3.592;2023-02-21T04:46:12;7.20;99.90
54168;DHT22;40072;50.958;3.592;2023-02-21T04:48:41;7.20;99.90
54168;DHT22;40072;50.958;3.592;2023-02-21T04:51:07;7.20;99.90
54168;DHT22;40072;50.958;3.592;2023-02-21T04:53:32;7.20;99.90
54168;DHT22;40072;50.958;3.592;2023-02-21T04:55:58;7.20;99.90
54168;DHT22;40072;50.958;3.592;2023-02-21T04:58:23;7.20;99.90
54168;DHT22;40072;50.958;3.592;2023-02-21T05:00:49;7.20;99.90
54168;DHT22;40072;50.958;3.592;2023-02-21T05:03:15;7.20;99.90
54168;DHT22;40072;50.958;3.592;2023-02-21T05:05:41;7.30;99.90
54168;DHT22;40072;50.958;3.592;2023-02-21T05:08:06;7.30;99.90
54168;DHT22;40072;50.958;3.592;2023-02-21T05:10:32;7.40;99.90
54168;DHT22;40072;50.958;3.592;2023-02-21T05:12:57;7.40;99.90
54168;DHT22;40072;50.958;3.592;2023-02-21T05:15:24;7.40;99.90
54168;DHT22;40072;50.958;3.592;2023-02-21T05:17:49;7.30;99.90
54168;DHT22;40072;50.958;3.592;2023-02-21T05:20:15;7.30;99.90
54168;DHT22;40072;50.958;3.592;2023-02-21T05:22:41;7.30;99.90
54168;DHT22;40072;50.958;3.592;2023-02-21T05:25:18;7.30;99.90
54168;DHT22;40072;50.958;3.592;2023-02-21T05:27:44;7.30;99.90
54168;DHT22;40072;50.958;3.592;2023-02-21T05:30:11;7.40;99.90
54168;DHT22;40072;50.958;3.592;2023-02-21T05:32:37;7.40;99.90
54168;DHT22;40072;50.958;3.592;2023-02-21T05:35:02;7.50;99.90
54168;DHT22;40072;50.958;3.592;2023-02-21T05:37:28;7.60;99.90
54168;DHT22;40072;50.958;3.592;2023-02-21T05:39:54;7.60;99.90
54168;DHT22;40072;50.958;3.592;2023-02-21T05:42:19;7.60;99.90
54168;DHT22;40072;50.958;3.592;2023-02-21T05:44:46;7.80;99.90
54168;DHT22;40072;50.958;3.592;2023-02-21T05:47:12;7.90;99.90
54168;DHT22;40072;50.958;3.592;2023-02-21T05:49:38;7.80;99.90
54168;DHT22;40072;50.958;3.592;2023-02-21T05:52:04;7.90;99.90
54168;DHT22;40072;50.958;3.592;2023-02-21T05:54:30;8.10;99.90
54168;DHT22;40072;50.958;3.592;2023-02-21T05:56:56;8.20;99.90
54168;DHT22;40072;50.958;3.592;2023-02-21T05:59:22;8.10;99.90
54168;DHT22;40072;50.958;3.592;2023-02-21T06:01:48;8.00;99.90
54168;DHT22;40072;50.958;3.592;2023-02-21T06:04:15;8.00;99.90
54168;DHT22;40072;50.958;3.592;2023-02-21T06:06:41;7.90;99.90
54168;DHT22;40072;50.958;3.592;2023-02-21T06:09:07;8.10;99.90
54168;DHT22;40072;50.958;3.592;2023-02-21T06:11:34;8.20;99.90
54168;DHT22;40072;50.958;3.592;2023-02-21T06:14:03;8.00;99.90
54168;DHT22;40072;50.958;3.592;2023-02-21T06:16:36;7.80;99.90
54168;DHT22;40072;50.958;3.592;2023-02-21T06:19:05;7.80;99.90
54168;DHT22;40072;50.958;3.592;2023-02-21T06:21:31;8.00;99.90
54168;DHT22;40072;50.958;3.592;2023-02-21T06:23:58;8.00;99.90
54168;DHT22;40072;50.958;3.592;2023-02-21T06:26:23;7.90;99.90
54168;DHT22;40072;50.958;3.592;2023-02-21T06:28:49;7.80;99.90
54168;DHT22;40072;50.958;3.592;2023-02-21T06:31:16;7.80;99.90
54168;DHT22;40072;50.958;3.592;2023-02-21T06:33:42;7.70;99.90
54168;DHT22;40072;50.958;3.592;2023-02-21T06:36:12;7.60;99.90
54168;DHT22;40072;50.958;3.592;2023-02-21T06:38:38;7.50;99.90
54168;DHT22;40072;50.958;3.592;2023-02-21T06:41:07;7.50;99.90
54168;DHT22;40072;50.958;3.592;2023-02-21T06:43:34;7.50;99.90
54168;DHT22;40072;50.958;3.592;2023-02-21T06:46:03;7.50;99.90
54168;DHT22;40072;50.958;3.592;2023-02-21T06:48:29;7.60;99.90
54168;DHT22;40072;50.958;3.592;2023-02-21T06:50:55;7.60;99.90
54168;DHT22;40072;50.958;3.592;2023-02-21T06:53:20;7.60;99.90
54168;DHT22;40072;50.958;3.592;2023-02-21T06:55:46;7.50;99.90
54168;DHT22;40072;50.958;3.592;2023-02-21T06:58:12;7.40;99.90
54168;DHT22;40072;50.958;3.592;2023-02-21T07:00:37;7.50;99.90
54168;DHT22;40072;50.958;3.592;2023-02-21T07:03:03;7.60;99.90
54168;DHT22;40072;50.958;3.592;2023-02-21T07:05:29;7.50;99.90
54168;DHT22;40072;50.958;3.592;2023-02-21T07:07:59;7.40;99.90
54168;DHT22;40072;50.958;3.592;2023-02-21T07:10:25;7.30;99.90
54168;DHT22;40072;50.958;3.592;2023-02-21T07:12:50;7.30;99.90
54168;DHT22;40072;50.958;3.592;2023-02-21T07:15:16;7.30;99.90
54168;DHT22;40072;50.958;3.592;2023-02-21T07:17:42;7.30;99.90
54168;DHT22;40072;50.958;3.592;2023-02-21T07:20:08;7.20;99.90
54168;DHT22;40072;50.958;3.592;2023-02-21T07:22:35;7.20;99.90
54168;DHT22;40072;50.958;3.592;2023-02-21T07:25:01;7.20;99.90
54168;DHT22;40072;50.958;3.592;2023-02-21T07:27:27;7.30;99.90
54168;DHT22;40072;50.958;3.592;2023-02-21T07:29:52;7.40;99.90
54168;DHT22;40072;50.958;3.592;2023-02-21T07:32:18;7.30;99.90
54168;DHT22;40072;50.958;3.592;2023-02-21T07:34:47;7.20;99.90
54168;DHT22;40072;50.958;3.592;2023-02-21T07:37:13;7.30;99.90
54168;DHT22;40072;50.958;3.592;2023-02-21T07:39:39;7.50;99.90
54168;DHT22;40072;50.958;3.592;2023-02-21T07:42:05;7.50;99.90
54168;DHT22;40072;50.958;3.592;2023-02-21T07:44:33;7.40;99.90
54168;DHT22;40072;50.958;3.592;2023-02-21T07:46:59;7.50;99.90
54168;DHT22;40072;50.958;3.592;2023-02-21T07:49:25;7.40;99.90
54168;DHT22;40072;50.958;3.592;2023-02-21T07:51:50;7.40;99.90
54168;DHT22;40072;50.958;3.592;2023-02-21T07:54:16;7.50;99.90
54168;DHT22;40072;50.958;3.592;2023-02-21T07:56:44;7.50;99.90
54168;DHT22;40072;50.958;3.592;2023-02-21T07:59:10;7.60;99.90
54168;DHT22;40072;50.958;3.592;2023-02-21T08:01:36;7.70;99.90
54168;DHT22;40072;50.958;3.592;2023-02-21T08:04:01;7.90;99.90
54168;DHT22;40072;50.958;3.592;2023-02-21T08:06:27;8.00;99.90
54168;DHT22;40072;50.958;3.592;2023-02-21T08:08:53;8.10;99.90
54168;DHT22;40072;50.958;3.592;2023-02-21T08:11:18;8.10;99.90
54168;DHT22;40072;50.958;3.592;2023-02-21T08:13:44;8.20;99.90
54168;DHT22;40072;50.958;3.592;2023-02-21T08:16:10;7.90;99.90
54168;DHT22;40072;50.958;3.592;2023-02-21T08:18:35;7.80;99.90
54168;DHT22;40072;50.958;3.592;2023-02-21T08:21:02;7.90;99.90
54168;DHT22;40072;50.958;3.592;2023-02-21T08:23:27;7.80;99.90
54168;DHT22;40072;50.958;3.592;2023-02-21T08:25:53;7.70;99.90
54168;DHT22;40072;50.958;3.592;2023-02-21T08:28:19;7.80;99.90
54168;DHT22;40072;50.958;3.592;2023-02-21T08:30:44;7.90;99.90
54168;DHT22;40072;50.958;3.592;2023-02-21T08:33:10;7.90;99.90
54168;DHT22;40072;50.958;3.592;2023-02-21T08:35:36;8.00;99.90
54168;DHT22;40072;50.958;3.592;2023-02-21T08:38:02;8.20;99.90
54168;DHT22;40072;50.958;3.592;2023-02-21T08:40:30;8.20;99.90
54168;DHT22;40072;50.958;3.592;2023-02-21T08:42:56;8.30;99.90
54168;DHT22;40072;50.958;3.592;2023-02-21T08:45:24;8.20;99.90
54168;DHT22;40072;50.958;3.592;2023-02-21T08:47:50;8.30;99.90
54168;DHT22;40072;50.958;3.592;2023-02-21T08:50:17;8.40;99.90
54168;DHT22;40072;50.958;3.592;2023-02-21T08:52:45;8.30;99.90
54168;DHT22;40072;50.958;3.592;2023-02-21T08:55:11;8.20;99.90
54168;DHT22;40072;50.958;3.592;2023-02-21T08:57:36;8.30;99.90
54168;DHT22;40072;50.958;3.592;2023-02-21T09:00:03;8.20;99.90
54168;DHT22;40072;50.958;3.592;2023-02-21T09:02:36;8.10;99.90
54168;DHT22;40072;50.958;3.592;2023-02-21T09:05:10;8.00;99.90
54168;DHT22;40072;50.958;3.592;2023-02-21T09:07:36;8.10;99.90
54168;DHT22;40072;50.958;3.592;2023-02-21T09:10:03;8.10;99.90
54168;DHT22;40072;50.958;3.592;2023-02-21T09:12:28;8.20;99.90
54168;DHT22;40072;50.958;3.592;2023-02-21T09:14:54;8.30;99.90
54168;DHT22;40072;50.958;3.592;2023-02-21T09:17:20;8.30;99.90
54168;DHT22;40072;50.958;3.592;2023-02-21T09:19:46;8.20;99.90
54168;DHT22;40072;50.958;3.592;2023-02-21T09:22:11;8.20;99.90
54168;DHT22;40072;50.958;3.592;2023-02-21T09:24:38;8.20;99.90
54168;DHT22;40072;50.958;3.592;2023-02-21T09:27:05;8.30;99.90
54168;DHT22;40072;50.958;3.592;2023-02-21T09:29:32;8.30;99.90
54168;DHT22;40072;50.958;3.592;2023-02-21T09:31:59;8.30;99.90
54168;DHT22;40072;50.958;3.592;2023-02-21T09:34:25;8.30;99.90
54168;DHT22;40072;50.958;3.592;2023-02-21T09:36:51;8.30;99.90
54168;DHT22;40072;50.958;3.592;2023-02-21T09:39:19;8.50;99.90
54168;DHT22;40072;50.958;3.592;2023-02-21T09:41:46;8.60;99.90
54168;DHT22;40072;50.958;3.592;2023-02-21T09:44:24;8.60;99.90
54168;DHT22;40072;50.958;3.592;2023-02-21T09:47:03;8.70;99.90
54168;DHT22;40072;50.958;3.592;2023-02-21T09:49:37;8.80;99.90
54168;DHT22;40072;50.958;3.592;2023-02-21T09:52:05;9.00;99.90
54168;DHT22;40072;50.958;3.592;2023-02-21T09:54:38;8.90;99.90
54168;DHT22;40072;50.958;3.592;2023-02-21T09:57:09;8.90;99.90
54168;DHT22;40072;50.958;3.592;2023-02-21T09:59:36;8.80;99.90
54168;DHT22;40072;50.958;3.592;2023-02-21T10:10:27;8.80;99.90
54168;DHT22;40072;50.958;3.592;2023-02-21T10:12:57;9.00;99.90
54168;DHT22;40072;50.958;3.592;2023-02-21T10:15:41;9.00;99.90
54168;DHT22;40072;50.958;3.592;2023-02-21T10:21:02;9.30;99.90
54168;DHT22;40072;50.958;3.592;2023-02-21T10:23:36;9.30;99.90
54168;DHT22;40072;50.958;3.592;2023-02-21T10:26:25;9.40;99.90
54168;DHT22;40072;50.958;3.592;2023-02-21T10:28:52;9.20;99.90
54168;DHT22;40072;50.958;3.592;2023-02-21T10:31:33;9.10;99.90
54168;DHT22;40072;50.958;3.592;2023-02-21T10:34:00;9.10;99.90
54168;DHT22;40072;50.958;3.592;2023-02-21T10:36:27;9.30;99.90
54168;DHT22;40072;50.958;3.592;2023-02-21T10:39:02;9.50;99.90
54168;DHT22;40072;50.958;3.592;2023-02-21T10:41:29;9.70;99.90
54168;DHT22;40072;50.958;3.592;2023-02-21T10:44:18;9.50;99.90
54168;DHT22;40072;50.958;3.592;2023-02-21T10:47:22;9.60;99.90
54168;DHT22;40072;50.958;3.592;2023-02-21T10:50:06;9.30;99.90
54168;DHT22;40072;50.958;3.592;2023-02-21T10:52:37;9.20;99.90
54168;DHT22;40072;50.958;3.592;2023-02-21T10:55:15;8.90;99.90
54168;DHT22;40072;50.958;3.592;2023-02-21T10:57:46;8.80;99.90
54168;DHT22;40072;50.958;3.592;2023-02-21T11:02:56;8.70;99.90
54168;DHT22;40072;50.958;3.592;2023-02-21T11:05:22;8.80;99.90
54168;DHT22;40072;50.958;3.592;2023-02-21T11:08:14;8.80;99.90
54168;DHT22;40072;50.958;3.592;2023-02-21T11:10:42;8.90;99.90
54168;DHT22;40072;50.958;3.592;2023-02-21T11:13:19;9.20;99.90
54168;DHT22;40072;50.958;3.592;2023-02-21T11:15:46;9.40;99.90
54168;DHT22;40072;50.958;3.592;2023-02-21T11:18:18;9.10;99.90
54168;DHT22;40072;50.958;3.592;2023-02-21T11:20:46;9.20;99.90
54168;DHT22;40072;50.958;3.592;2023-02-21T11:23:19;9.20;99.90
54168;DHT22;40072;50.958;3.592;2023-02-21T11:25:46;9.50;99.90
54168;DHT22;40072;50.958;3.592;2023-02-21T11:30:42;9.60;99.90
54168;DHT22;40072;50.958;3.592;2023-02-21T11:33:10;9.40;99.90
54168;DHT22;40072;50.958;3.592;2023-02-21T11:40:55;9.60;99.90
54168;DHT22;40072;50.958;3.592;2023-02-21T11:43:29;9.70;99.90
54168;DHT22;40072;50.958;3.592;2023-02-21T11:46:08;9.30;99.90
54168;DHT22;40072;50.958;3.592;2023-02-21T11:49:03;9.10;99.90
54168;DHT22;40072;50.958;3.592;2023-02-21T11:52:12;9.30;99.90
54168;DHT22;40072;50.958;3.592;2023-02-21T11:54:39;9.20;99.90
54168;DHT22;40072;50.958;3.592;2023-02-21T12:05:44;9.30;99.90
54168;DHT22;40072;50.958;3.592;2023-02-21T12:22:19;9.50;99.90
54168;DHT22;40072;50.958;3.592;2023-02-21T12:25:14;9.20;99.90
54168;DHT22;40072;50.958;3.592;2023-02-21T12:36:24;9.30;99.90
54168;DHT22;40072;50.958;3.592;2023-02-21T12:39:42;9.20;99.90
54168;DHT22;40072;50.958;3.592;2023-02-21T12:45:06;9.70;99.90
54168;DHT22;40072;50.958;3.592;2023-02-21T12:47:58;9.70;99.90
54168;DHT22;40072;50.958;3.592;2023-02-21T12:50:35;9.60;99.90
54168;DHT22;40072;50.958;3.592;2023-02-21T12:55:45;9.60;99.90
54168;DHT22;40072;50.958;3.592;2023-02-21T12:58:44;9.50;99.90
54168;DHT22;40072;50.958;3.592;2023-02-21T13:01:15;9.60;99.90
54168;DHT22;40072;50.958;3.592;2023-02-21T13:09:34;9.50;99.90
54168;DHT22;40072;50.958;3.592;2023-02-21T13:15:28;9.80;99.90
54168;DHT22;40072;50.958;3.592;2023-02-21T13:17:59;9.80;99.90
54168;DHT22;40072;50.958;3.592;2023-02-21T13:20:32;9.70;99.90
54168;DHT22;40072;50.958;3.592;2023-02-21T13:29:17;9.80;99.90
54168;DHT22;40072;50.958;3.592;2023-02-21T13:31:44;9.90;99.90
54168;DHT22;40072;50.958;3.592;2023-02-21T13:34:12;10.10;99.90
54168;DHT22;40072;50.958;3.592;2023-02-21T13:36:44;10.00;99.90
54168;DHT22;40072;50.958;3.592;2023-02-21T13:39:14;9.70;99.90
54168;DHT22;40072;50.958;3.592;2023-02-21T13:41:55;9.50;99.90
54168;DHT22;40072;50.958;3.592;2023-02-21T13:44:32;9.50;99.90
54168;DHT22;40072;50.958;3.592;2023-02-21T13:47:09;9.60;99.90
54168;DHT22;40072;50.958;3.592;2023-02-21T13:57:44;9.40;99.90
54168;DHT22;40072;50.958;3.592;2023-02-21T14:13:45;9.60;99.90
54168;DHT22;40072;50.958;3.592;2023-02-21T14:23:51;9.50;99.90
54168;DHT22;40072;50.958;3.592;2023-02-21T14:34:29;9.20;99.90
54168;DHT22;40072;50.958;3.592;2023-02-21T14:37:41;9.30;99.90
54168;DHT22;40072;50.958;3.592;2023-02-21T14:48:25;9.50;99.90
54168;DHT22;40072;50.958;3.592;2023-02-21T14:51:07;9.80;99.90
54168;DHT22;40072;50.958;3.592;2023-02-21T14:56:46;9.40;99.90
54168;DHT22;40072;50.958;3.592;2023-02-21T15:03:01;9.50;99.90
54168;DHT22;40072;50.958;3.592;2023-02-21T15:08:22;9.30;99.90
54168;DHT22;40072;50.958;3.592;2023-02-21T15:10:49;9.30;99.90
54168;DHT22;40072;50.958;3.592;2023-02-21T15:13:28;9.20;99.90
54168;DHT22;40072;50.958;3.592;2023-02-21T15:16:06;9.00;99.90
54168;DHT22;40072;50.958;3.592;2023-02-21T15:18:34;8.90;99.90
54168;DHT22;40072;50.958;3.592;2023-02-21T15:23:42;9.10;99.90
54168;DHT22;40072;50.958;3.592;2023-02-21T15:29:01;9.40;99.90
54168;DHT22;40072;50.958;3.592;2023-02-21T15:31:27;9.00;99.90
54168;DHT22;40072;50.958;3.592;2023-02-21T15:33:56;9.20;99.90
54168;DHT22;40072;50.958;3.592;2023-02-21T15:36:22;9.10;99.90
54168;DHT22;40072;50.958;3.592;2023-02-21T15:38:55;9.20;99.90
54168;DHT22;40072;50.958;3.592;2023-02-21T15:41:34;9.20;99.90
54168;DHT22;40072;50.958;3.592;2023-02-21T15:49:24;8.70;99.90
54168;DHT22;40072;50.958;3.592;2023-02-21T15:51:51;8.90;99.90
54168;DHT22;40072;50.958;3.592;2023-02-21T15:56:43;9.30;99.90
54168;DHT22;40072;50.958;3.592;2023-02-21T15:59:10;9.10;99.90
54168;DHT22;40072;50.958;3.592;2023-02-21T16:01:36;8.80;99.90
54168;DHT22;40072;50.958;3.592;2023-02-21T16:04:18;8.80;99.90
54168;DHT22;40072;50.958;3.592;2023-02-21T16:06:55;9.00;99.90
54168;DHT22;40072;50.958;3.592;2023-02-21T16:09:29;9.30;99.90
54168;DHT22;40072;50.958;3.592;2023-02-21T16:12:29;9.20;99.90
54168;DHT22;40072;50.958;3.592;2023-02-21T16:15:00;9.10;99.90
54168;DHT22;40072;50.958;3.592;2023-02-21T16:17:32;9.00;99.90
54168;DHT22;40072;50.958;3.592;2023-02-21T16:20:20;9.10;99.90
54168;DHT22;40072;50.958;3.592;2023-02-21T16:28:40;9.10;99.90
54168;DHT22;40072;50.958;3.592;2023-02-21T16:31:08;9.10;99.90
54168;DHT22;40072;50.958;3.592;2023-02-21T16:33:34;9.00;99.90
54168;DHT22;40072;50.958;3.592;2023-02-21T16:36:05;9.00;99.90
54168;DHT22;40072;50.958;3.592;2023-02-21T16:38:32;8.90;99.90
54168;DHT22;40072;50.958;3.592;2023-02-21T16:40:57;8.70;99.90
54168;DHT22;40072;50.958;3.592;2023-02-21T16:43:26;8.60;99.90
54168;DHT22;40072;50.958;3.592;2023-02-21T16:45:54;8.50;99.90
54168;DHT22;40072;50.958;3.592;2023-02-21T16:48:24;8.30;99.90
54168;DHT22;40072;50.958;3.592;2023-02-21T16:50:53;8.40;99.90
54168;DHT22;40072;50.958;3.592;2023-02-21T16:53:20;8.60;99.90
54168;DHT22;40072;50.958;3.592;2023-02-21T16:55:47;8.70;99.90
54168;DHT22;40072;50.958;3.592;2023-02-21T16:58:24;8.70;99.90
54168;DHT22;40072;50.958;3.592;2023-02-21T17:01:00;8.80;99.90
54168;DHT22;40072;50.958;3.592;2023-02-21T17:03:26;8.70;99.90
54168;DHT22;40072;50.958;3.592;2023-02-21T17:05:53;8.70;99.90
54168;DHT22;40072;50.958;3.592;2023-02-21T17:08:20;8.70;99.90
54168;DHT22;40072;50.958;3.592;2023-02-21T17:10:45;8.50;99.90
54168;DHT22;40072;50.958;3.592;2023-02-21T17:13:11;8.20;99.90
54168;DHT22;40072;50.958;3.592;2023-02-21T17:15:37;8.10;99.90
54168;DHT22;40072;50.958;3.592;2023-02-21T17:18:03;8.20;99.90
54168;DHT22;40072;50.958;3.592;2023-02-21T17:20:29;8.40;99.90
54168;DHT22;40072;50.958;3.592;2023-02-21T17:22:55;8.50;99.90
54168;DHT22;40072;50.958;3.592;2023-02-21T17:25:23;8.50;99.90
54168;DHT22;40072;50.958;3.592;2023-02-21T17:27:49;8.60;99.90
54168;DHT22;40072;50.958;3.592;2023-02-21T17:30:16;8.50;99.90
54168;DHT22;40072;50.958;3.592;2023-02-21T17:32:43;8.50;99.90
54168;DHT22;40072;50.958;3.592;2023-02-21T17:35:09;8.50;99.90
54168;DHT22;40072;50.958;3.592;2023-02-21T17:37:35;8.20;99.90
54168;DHT22;40072;50.958;3.592;2023-02-21T17:40:01;8.30;99.90
54168;DHT22;40072;50.958;3.592;2023-02-21T17:42:27;8.20;99.90
54168;DHT22;40072;50.958;3.592;2023-02-21T17:44:53;8.00;99.90
54168;DHT22;40072;50.958;3.592;2023-02-21T17:47:20;7.90;99.90
54168;DHT22;40072;50.958;3.592;2023-02-21T17:49:47;7.90;99.90
54168;DHT22;40072;50.958;3.592;2023-02-21T17:52:14;7.90;99.90
54168;DHT22;40072;50.958;3.592;2023-02-21T17:54:40;7.90;99.90
54168;DHT22;40072;50.958;3.592;2023-02-21T17:57:06;8.10;99.90
54168;DHT22;40072;50.958;3.592;2023-02-21T17:59:36;8.10;99.90
54168;DHT22;40072;50.958;3.592;2023-02-21T18:02:02;8.10;99.90
54168;DHT22;40072;50.958;3.592;2023-02-21T18:04:28;8.00;99.90
54168;DHT22;40072;50.958;3.592;2023-02-21T18:06:55;7.80;99.90
54168;DHT22;40072;50.958;3.592;2023-02-21T18:09:21;7.70;99.90
54168;DHT22;40072;50.958;3.592;2023-02-21T18:11:49;7.70;99.90
54168;DHT22;40072;50.958;3.592;2023-02-21T18:14:15;7.70;99.90
54168;DHT22;40072;50.958;3.592;2023-02-21T18:16:41;7.60;99.90
54168;DHT22;40072;50.958;3.592;2023-02-21T18:19:07;7.60;99.90
54168;DHT22;40072;50.958;3.592;2023-02-21T18:21:33;7.60;99.90
54168;DHT22;40072;50.958;3.592;2023-02-21T18:23:59;7.70;99.90
54168;DHT22;40072;50.958;3.592;2023-02-21T18:26:25;7.80;99.90
54168;DHT22;40072;50.958;3.592;2023-02-21T18:28:50;7.80;99.90
54168;DHT22;40072;50.958;3.592;2023-02-21T18:31:17;7.90;99.90
54168;DHT22;40072;50.958;3.592;2023-02-21T18:33:43;7.90;99.90
54168;DHT22;40072;50.958;3.592;2023-02-21T18:36:09;8.10;99.90
54168;DHT22;40072;50.958;3.592;2023-02-21T18:38:38;7.90;99.90
54168;DHT22;40072;50.958;3.592;2023-02-21T18:41:12;7.80;99.90
54168;DHT22;40072;50.958;3.592;2023-02-21T18:43:38;7.70;99.90
54168;DHT22;40072;50.958;3.592;2023-02-21T18:46:09;7.60;99.90
54168;DHT22;40072;50.958;3.592;2023-02-21T18:48:36;7.60;99.90
54168;DHT22;40072;50.958;3.592;2023-02-21T18:51:02;7.60;99.90
54168;DHT22;40072;50.958;3.592;2023-02-21T18:53:28;7.50;99.90
54168;DHT22;40072;50.958;3.592;2023-02-21T18:55:54;7.30;99.90
54168;DHT22;40072;50.958;3.592;2023-02-21T18:58:19;7.30;99.90
54168;DHT22;40072;50.958;3.592;2023-02-21T19:00:45;7.20;99.90
54168;DHT22;40072;50.958;3.592;2023-02-21T19:03:12;6.90;99.90
54168;DHT22;40072;50.958;3.592;2023-02-21T19:05:38;6.70;99.90
54168;DHT22;40072;50.958;3.592;2023-02-21T19:08:04;6.80;99.90
54168;DHT22;40072;50.958;3.592;2023-02-21T19:10:30;6.80;99.90